De Luce, Arkansas
Current Conditions -  °F | °C
As of 11:15 AM on Saturday 25 Oct 2014 (Local Time) from KSGT Reporting Station
Clear Clear  
Wind Chill: 75°   Ceiling: Unl
Heat Index: 75°   Visibility: 10mi
Dew Point: 61°   Wind: 14mph
Humidity: 61%   Direction: 270°W
Pressure: 30.12"   Gusts: 17mph
Location:  34.1937°N, 91.3321°W
Report Text: KSGT 251615Z AUTO 27012G15KT 10SM CLR 24/16 A3012 RMK AO1
Loading
Personal Weather Stations






























Interactive Weather Map
Tropical Storm Tracking
New forecast layout! Learn more

10-Day Weather Forecast

Advertisements
Track Severe Weather on mobile